Smithville, MS

22:01 CDT le 22 octobre 2014 (GMT -0500)
Amory | Change Station
CLOSE
Current Station
Stations météorologiques personnelles
Location: Amory, MS
Altitude: 233 ft
Stations météo à proximité

Alt. 233 ft 33.98 °N, 88.49 °W | Updated 0 second ago

Ciel dégagé
Ciel dégagé
50.6 ° F
Paraît 50.6 ° F
N
1.0
Vent Variable Vent de NNE
Gusts 4.0 mph

Aujourd'hui
Haut(e) -- | Bas -- ° F
--% Risque de précip.
Hier
Haut(e) -- | Bas -- ° F
Precip. -- pouce
7:04 AM 6:11 PM
Lune descendante, 1% visible
Pression 30.18 pouce
Visibilité 9.0 Miles terrestres
Nuages Ciel dégagé
Point de rosée 48 ° F
Humidité 89%
Précipitations 0.00 pouce
Profondeur de la couche neigeuse Non disponible.
UV 0 sur 12
Pollen 1.90 sur 12
Qualité de l'air Non disponible.
Flu Activity No Activity
METAR KM40 230255Z AUTO 00000KT 9SM CLR 08/00 A3018 RMK AO2

More Conditions Fewer Conditions

Pression 30.18 pouce
Visibilité 9.0 Miles terrestres
Nuages Ciel dégagé
Point de rosée 48 ° F
Humidité 89%
Précipitations 0.00 pouce
Profondeur de la couche neigeuse Non disponible.
UV 0 sur 12
Pollen 1.90 sur 12
Qualité de l'air Non disponible.
Flu Activity No Activity
METAR KM40 230255Z AUTO 00000KT 9SM CLR 08/00 A3018 RMK AO2

More Conditions Fewer Conditions

10-Day Weather Forecast

Almanac

Astronomie

Oct. 22, 2014 Lever Coucher
Temps réel 07:04 CDT 18:11 CDT
Crépuscule civil 06:38 CDT 18:36 CDT
Crépuscule nautique 06:09 CDT 19:05 CDT
Crépuscule astronomique 05:40 CDT 19:34 CDT
Lune 05:49 CDT (10/22) 17:35 CDT (10/22)
Durée de lumière visible 11h 57m
Longueur du jour
11h 06m
Tomorrow will be 1m 58s shorter.
Lune descendante, 1% of the Moon is Illuminated
Aujourd'hui
Lune descendante
Oct 23
Nouveau
Oct 30
Premier quartier
Nov 6
Pleine lune
Nov 14
Dernier quartier

Extrêmes aujourd'hui

State Highs State Lows

Community

WunderPhotos

Upload Photos

1,764,121 Photos téléchargées !

Nearby

Épaisseur de neige

Station Depth Altitude
Pas de nouvelles chutes de neige

Activité sismique

Ville Distance Mag. Time & Date
No recent earthquake activity has been reported nearby.
Minimum magnitude displayed is 2.5.

Températures des eaux côtières

Lieu Température
Aucun rapport de station

Stations météo à proximité